sensor_id;sensor_type;location;lat;lon;timestamp;P1;durP1;ratioP1;P2;durP2;ratioP2
13975;SDS011;7062;49.792;9.946;2023-09-19T00:00:37;0.40;;;0.40;;
13975;SDS011;7062;49.792;9.946;2023-09-19T00:03:05;1.03;;;0.47;;
13975;SDS011;7062;49.792;9.946;2023-09-19T00:05:33;1.93;;;0.63;;
13975;SDS011;7062;49.792;9.946;2023-09-19T00:08:00;0.73;;;0.43;;
13975;SDS011;7062;49.792;9.946;2023-09-19T00:10:30;2.20;;;0.50;;
13975;SDS011;7062;49.792;9.946;2023-09-19T00:12:59;0.73;;;0.33;;
13975;SDS011;7062;49.792;9.946;2023-09-19T00:15:30;1.20;;;0.50;;
13975;SDS011;7062;49.792;9.946;2023-09-19T00:17:58;0.40;;;0.40;;
13975;SDS011;7062;49.792;9.946;2023-09-19T00:20:24;0.43;;;0.40;;
13975;SDS011;7062;49.792;9.946;2023-09-19T00:22:50;0.60;;;0.60;;
13975;SDS011;7062;49.792;9.946;2023-09-19T00:25:17;1.53;;;0.50;;
13975;SDS011;7062;49.792;9.946;2023-09-19T00:27:43;1.00;;;0.60;;
13975;SDS011;7062;49.792;9.946;2023-09-19T00:30:10;1.87;;;0.53;;
13975;SDS011;7062;49.792;9.946;2023-09-19T00:32:41;0.87;;;0.50;;
13975;SDS011;7062;49.792;9.946;2023-09-19T00:35:08;1.80;;;0.50;;
13975;SDS011;7062;49.792;9.946;2023-09-19T00:37:36;0.80;;;0.57;;
13975;SDS011;7062;49.792;9.946;2023-09-19T00:40:04;0.70;;;0.50;;
13975;SDS011;7062;49.792;9.946;2023-09-19T00:42:32;3.40;;;0.50;;
13975;SDS011;7062;49.792;9.946;2023-09-19T00:44:58;0.53;;;0.50;;
13975;SDS011;7062;49.792;9.946;2023-09-19T00:47:28;0.50;;;0.43;;
13975;SDS011;7062;49.792;9.946;2023-09-19T00:49:54;1.57;;;0.47;;
13975;SDS011;7062;49.792;9.946;2023-09-19T00:52:21;1.53;;;0.60;;
13975;SDS011;7062;49.792;9.946;2023-09-19T00:54:48;1.53;;;0.60;;
13975;SDS011;7062;49.792;9.946;2023-09-19T00:57:14;1.03;;;0.37;;
13975;SDS011;7062;49.792;9.946;2023-09-19T00:59:44;2.13;;;0.60;;
13975;SDS011;7062;49.792;9.946;2023-09-19T01:02:13;1.67;;;0.60;;
13975;SDS011;7062;49.792;9.946;2023-09-19T01:04:39;1.57;;;0.83;;
13975;SDS011;7062;49.792;9.946;2023-09-19T01:07:06;1.03;;;0.57;;
13975;SDS011;7062;49.792;9.946;2023-09-19T01:09:33;0.73;;;0.40;;
13975;SDS011;7062;49.792;9.946;2023-09-19T01:12:01;0.87;;;0.63;;
13975;SDS011;7062;49.792;9.946;2023-09-19T01:14:42;2.37;;;0.80;;
13975;SDS011;7062;49.792;9.946;2023-09-19T01:17:35;1.67;;;0.83;;
13975;SDS011;7062;49.792;9.946;2023-09-19T01:29:33;3.23;;;0.70;;
13975;SDS011;7062;49.792;9.946;2023-09-19T01:32:05;1.87;;;0.87;;
13975;SDS011;7062;49.792;9.946;2023-09-19T01:34:47;0.70;;;0.60;;
13975;SDS011;7062;49.792;9.946;2023-09-19T01:37:19;1.87;;;0.50;;
13975;SDS011;7062;49.792;9.946;2023-09-19T01:39:50;2.83;;;0.60;;
13975;SDS011;7062;49.792;9.946;2023-09-19T01:42:31;1.03;;;0.70;;
13975;SDS011;7062;49.792;9.946;2023-09-19T01:55:58;2.13;;;1.17;;
13975;SDS011;7062;49.792;9.946;2023-09-19T02:00:52;1.33;;;0.70;;
13975;SDS011;7062;49.792;9.946;2023-09-19T02:03:20;2.10;;;0.83;;
13975;SDS011;7062;49.792;9.946;2023-09-19T02:05:50;2.07;;;0.70;;
13975;SDS011;7062;49.792;9.946;2023-09-19T02:08:19;1.00;;;0.90;;
13975;SDS011;7062;49.792;9.946;2023-09-19T02:10:49;1.10;;;0.70;;
13975;SDS011;7062;49.792;9.946;2023-09-19T02:13:18;2.03;;;0.80;;
13975;SDS011;7062;49.792;9.946;2023-09-19T02:15:44;0.80;;;0.73;;
13975;SDS011;7062;49.792;9.946;2023-09-19T02:18:11;1.37;;;0.90;;
13975;SDS011;7062;49.792;9.946;2023-09-19T02:20:39;1.53;;;0.77;;
13975;SDS011;7062;49.792;9.946;2023-09-19T02:23:05;3.13;;;0.80;;
13975;SDS011;7062;49.792;9.946;2023-09-19T02:25:33;1.17;;;0.90;;
13975;SDS011;7062;49.792;9.946;2023-09-19T02:27:58;2.27;;;1.00;;
13975;SDS011;7062;49.792;9.946;2023-09-19T02:30:26;1.00;;;0.70;;
13975;SDS011;7062;49.792;9.946;2023-09-19T02:32:51;0.93;;;0.80;;
13975;SDS011;7062;49.792;9.946;2023-09-19T02:35:17;1.87;;;1.00;;
13975;SDS011;7062;49.792;9.946;2023-09-19T02:37:46;1.67;;;1.10;;
13975;SDS011;7062;49.792;9.946;2023-09-19T02:40:12;3.27;;;0.70;;
13975;SDS011;7062;49.792;9.946;2023-09-19T02:42:47;0.90;;;0.90;;
13975;SDS011;7062;49.792;9.946;2023-09-19T02:45:17;4.43;;;1.13;;
13975;SDS011;7062;49.792;9.946;2023-09-19T02:47:46;2.37;;;1.00;;
13975;SDS011;7062;49.792;9.946;2023-09-19T02:50:12;1.63;;;1.07;;
13975;SDS011;7062;49.792;9.946;2023-09-19T02:52:41;2.43;;;0.93;;
13975;SDS011;7062;49.792;9.946;2023-09-19T02:55:12;1.70;;;0.90;;
13975;SDS011;7062;49.792;9.946;2023-09-19T02:57:49;3.57;;;1.30;;
13975;SDS011;7062;49.792;9.946;2023-09-19T03:00:17;1.20;;;1.00;;
13975;SDS011;7062;49.792;9.946;2023-09-19T03:02:53;2.13;;;0.87;;
13975;SDS011;7062;49.792;9.946;2023-09-19T03:05:20;3.37;;;1.20;;
13975;SDS011;7062;49.792;9.946;2023-09-19T03:07:48;1.57;;;1.20;;
13975;SDS011;7062;49.792;9.946;2023-09-19T03:10:15;2.23;;;1.00;;
13975;SDS011;7062;49.792;9.946;2023-09-19T03:12:42;1.63;;;1.53;;
13975;SDS011;7062;49.792;9.946;2023-09-19T03:15:08;5.47;;;1.20;;
13975;SDS011;7062;49.792;9.946;2023-09-19T03:17:34;2.73;;;1.50;;
13975;SDS011;7062;49.792;9.946;2023-09-19T03:20:00;2.20;;;1.27;;
13975;SDS011;7062;49.792;9.946;2023-09-19T03:22:27;5.43;;;1.50;;
13975;SDS011;7062;49.792;9.946;2023-09-19T03:24:53;3.83;;;1.50;;
13975;SDS011;7062;49.792;9.946;2023-09-19T03:27:19;2.30;;;1.53;;
13975;SDS011;7062;49.792;9.946;2023-09-19T03:29:45;3.47;;;1.70;;
13975;SDS011;7062;49.792;9.946;2023-09-19T03:32:14;2.83;;;1.60;;
13975;SDS011;7062;49.792;9.946;2023-09-19T03:34:40;3.23;;;1.80;;
13975;SDS011;7062;49.792;9.946;2023-09-19T03:37:07;3.73;;;1.83;;
13975;SDS011;7062;49.792;9.946;2023-09-19T03:39:36;2.17;;;1.77;;
13975;SDS011;7062;49.792;9.946;2023-09-19T03:42:02;2.50;;;1.50;;
13975;SDS011;7062;49.792;9.946;2023-09-19T03:44:29;2.97;;;1.77;;
13975;SDS011;7062;49.792;9.946;2023-09-19T03:46:55;5.10;;;2.20;;
13975;SDS011;7062;49.792;9.946;2023-09-19T03:49:22;2.37;;;1.73;;
13975;SDS011;7062;49.792;9.946;2023-09-19T03:51:47;4.33;;;2.67;;
13975;SDS011;7062;49.792;9.946;2023-09-19T03:54:13;3.20;;;1.80;;
13975;SDS011;7062;49.792;9.946;2023-09-19T03:56:39;1.60;;;1.43;;
13975;SDS011;7062;49.792;9.946;2023-09-19T03:59:04;2.80;;;1.40;;
13975;SDS011;7062;49.792;9.946;2023-09-19T04:01:30;3.53;;;1.70;;
13975;SDS011;7062;49.792;9.946;2023-09-19T04:03:58;1.83;;;1.23;;
13975;SDS011;7062;49.792;9.946;2023-09-19T04:06:24;4.40;;;2.03;;
13975;SDS011;7062;49.792;9.946;2023-09-19T04:08:49;4.23;;;1.87;;
13975;SDS011;7062;49.792;9.946;2023-09-19T04:11:15;2.50;;;1.40;;
13975;SDS011;7062;49.792;9.946;2023-09-19T04:13:41;2.63;;;1.40;;
13975;SDS011;7062;49.792;9.946;2023-09-19T04:16:06;1.97;;;1.30;;
13975;SDS011;7062;49.792;9.946;2023-09-19T04:18:32;1.90;;;1.33;;
13975;SDS011;7062;49.792;9.946;2023-09-19T04:21:02;1.80;;;1.40;;
13975;SDS011;7062;49.792;9.946;2023-09-19T04:23:29;2.90;;;1.00;;
13975;SDS011;7062;49.792;9.946;2023-09-19T04:25:54;3.27;;;1.37;;
13975;SDS011;7062;49.792;9.946;2023-09-19T04:28:20;2.43;;;0.90;;
13975;SDS011;7062;49.792;9.946;2023-09-19T04:30:46;2.80;;;1.30;;
13975;SDS011;7062;49.792;9.946;2023-09-19T04:33:11;2.33;;;1.23;;
13975;SDS011;7062;49.792;9.946;2023-09-19T04:35:39;3.93;;;1.10;;
13975;SDS011;7062;49.792;9.946;2023-09-19T04:38:07;2.97;;;1.10;;
13975;SDS011;7062;49.792;9.946;2023-09-19T04:40:33;1.73;;;1.43;;
13975;SDS011;7062;49.792;9.946;2023-09-19T04:42:59;2.93;;;1.43;;
13975;SDS011;7062;49.792;9.946;2023-09-19T04:45:25;3.40;;;1.57;;
13975;SDS011;7062;49.792;9.946;2023-09-19T04:47:52;1.60;;;1.30;;
13975;SDS011;7062;49.792;9.946;2023-09-19T04:50:18;1.33;;;0.90;;
13975;SDS011;7062;49.792;9.946;2023-09-19T04:52:46;1.93;;;1.30;;
13975;SDS011;7062;49.792;9.946;2023-09-19T04:55:16;2.70;;;1.57;;
13975;SDS011;7062;49.792;9.946;2023-09-19T04:57:49;3.10;;;1.43;;
13975;SDS011;7062;49.792;9.946;2023-09-19T05:00:16;3.63;;;1.13;;
13975;SDS011;7062;49.792;9.946;2023-09-19T05:02:52;1.23;;;1.00;;
13975;SDS011;7062;49.792;9.946;2023-09-19T05:05:20;2.17;;;1.40;;
13975;SDS011;7062;49.792;9.946;2023-09-19T05:07:47;1.60;;;1.27;;
13975;SDS011;7062;49.792;9.946;2023-09-19T05:10:13;1.47;;;1.07;;
13975;SDS011;7062;49.792;9.946;2023-09-19T05:12:39;2.80;;;1.40;;
13975;SDS011;7062;49.792;9.946;2023-09-19T05:15:06;2.27;;;0.93;;
13975;SDS011;7062;49.792;9.946;2023-09-19T05:17:33;7.00;;;1.33;;
13975;SDS011;7062;49.792;9.946;2023-09-19T05:19:59;3.47;;;1.50;;
13975;SDS011;7062;49.792;9.946;2023-09-19T05:22:31;5.70;;;1.33;;
13975;SDS011;7062;49.792;9.946;2023-09-19T05:25:00;3.77;;;1.30;;
13975;SDS011;7062;49.792;9.946;2023-09-19T05:27:28;1.80;;;1.20;;
13975;SDS011;7062;49.792;9.946;2023-09-19T05:29:54;1.50;;;1.20;;
13975;SDS011;7062;49.792;9.946;2023-09-19T05:32:20;1.90;;;1.37;;
13975;SDS011;7062;49.792;9.946;2023-09-19T05:34:47;2.30;;;1.20;;
13975;SDS011;7062;49.792;9.946;2023-09-19T05:37:13;4.63;;;1.37;;
13975;SDS011;7062;49.792;9.946;2023-09-19T05:39:41;2.53;;;1.43;;
13975;SDS011;7062;49.792;9.946;2023-09-19T05:42:07;5.23;;;1.50;;
13975;SDS011;7062;49.792;9.946;2023-09-19T05:44:33;2.37;;;1.30;;
13975;SDS011;7062;49.792;9.946;2023-09-19T05:46:59;4.07;;;1.70;;
13975;SDS011;7062;49.792;9.946;2023-09-19T05:49:24;3.13;;;1.40;;
13975;SDS011;7062;49.792;9.946;2023-09-19T05:51:50;3.03;;;1.73;;
13975;SDS011;7062;49.792;9.946;2023-09-19T05:54:20;3.53;;;1.80;;
13975;SDS011;7062;49.792;9.946;2023-09-19T05:56:45;5.23;;;1.67;;
13975;SDS011;7062;49.792;9.946;2023-09-19T05:59:12;9.47;;;1.50;;
13975;SDS011;7062;49.792;9.946;2023-09-19T06:01:40;6.33;;;2.10;;
13975;SDS011;7062;49.792;9.946;2023-09-19T06:04:09;3.33;;;1.80;;
13975;SDS011;7062;49.792;9.946;2023-09-19T06:06:34;7.50;;;1.67;;
13975;SDS011;7062;49.792;9.946;2023-09-19T06:09:04;4.80;;;1.70;;
13975;SDS011;7062;49.792;9.946;2023-09-19T06:11:34;9.83;;;1.97;;
13975;SDS011;7062;49.792;9.946;2023-09-19T06:14:01;2.40;;;1.93;;
13975;SDS011;7062;49.792;9.946;2023-09-19T06:16:27;8.87;;;1.80;;
13975;SDS011;7062;49.792;9.946;2023-09-19T06:18:54;3.50;;;1.27;;
13975;SDS011;7062;49.792;9.946;2023-09-19T06:21:21;4.53;;;1.80;;
13975;SDS011;7062;49.792;9.946;2023-09-19T06:23:47;4.87;;;1.60;;
13975;SDS011;7062;49.792;9.946;2023-09-19T06:26:13;5.47;;;1.70;;
13975;SDS011;7062;49.792;9.946;2023-09-19T06:28:39;2.90;;;1.40;;
13975;SDS011;7062;49.792;9.946;2023-09-19T06:31:06;1.83;;;1.50;;
13975;SDS011;7062;49.792;9.946;2023-09-19T06:33:36;3.13;;;1.60;;
13975;SDS011;7062;49.792;9.946;2023-09-19T06:36:05;4.47;;;1.60;;
13975;SDS011;7062;49.792;9.946;2023-09-19T06:38:31;2.93;;;1.77;;
13975;SDS011;7062;49.792;9.946;2023-09-19T06:40:59;4.67;;;1.80;;
13975;SDS011;7062;49.792;9.946;2023-09-19T06:43:26;6.43;;;1.77;;
13975;SDS011;7062;49.792;9.946;2023-09-19T06:45:53;5.00;;;1.70;;
13975;SDS011;7062;49.792;9.946;2023-09-19T06:48:19;2.43;;;1.60;;
13975;SDS011;7062;49.792;9.946;2023-09-19T06:50:46;5.23;;;1.63;;
13975;SDS011;7062;49.792;9.946;2023-09-19T06:53:13;4.27;;;2.50;;
13975;SDS011;7062;49.792;9.946;2023-09-19T06:55:39;4.27;;;2.03;;
13975;SDS011;7062;49.792;9.946;2023-09-19T06:58:05;3.07;;;1.90;;
13975;SDS011;7062;49.792;9.946;2023-09-19T07:00:31;2.80;;;1.80;;
13975;SDS011;7062;49.792;9.946;2023-09-19T07:02:59;5.40;;;1.97;;
13975;SDS011;7062;49.792;9.946;2023-09-19T07:05:26;2.87;;;1.97;;
13975;SDS011;7062;49.792;9.946;2023-09-19T07:07:53;4.90;;;1.80;;
13975;SDS011;7062;49.792;9.946;2023-09-19T07:10:21;6.60;;;2.27;;
13975;SDS011;7062;49.792;9.946;2023-09-19T07:12:54;6.20;;;2.50;;
13975;SDS011;7062;49.792;9.946;2023-09-19T07:15:21;3.30;;;2.03;;
13975;SDS011;7062;49.792;9.946;2023-09-19T07:17:48;3.87;;;1.77;;
13975;SDS011;7062;49.792;9.946;2023-09-19T07:20:13;5.17;;;2.60;;
13975;SDS011;7062;49.792;9.946;2023-09-19T07:22:41;3.87;;;1.50;;
13975;SDS011;7062;49.792;9.946;2023-09-19T07:25:07;4.37;;;1.53;;
13975;SDS011;7062;49.792;9.946;2023-09-19T07:27:33;4.73;;;2.47;;
13975;SDS011;7062;49.792;9.946;2023-09-19T07:29:58;8.03;;;1.80;;
13975;SDS011;7062;49.792;9.946;2023-09-19T07:32:24;4.80;;;1.67;;
13975;SDS011;7062;49.792;9.946;2023-09-19T07:34:50;2.33;;;1.90;;
13975;SDS011;7062;49.792;9.946;2023-09-19T07:37:15;2.40;;;1.43;;
13975;SDS011;7062;49.792;9.946;2023-09-19T07:39:41;4.30;;;1.60;;
13975;SDS011;7062;49.792;9.946;2023-09-19T07:42:08;1.60;;;1.37;;
13975;SDS011;7062;49.792;9.946;2023-09-19T07:44:35;2.30;;;1.73;;
13975;SDS011;7062;49.792;9.946;2023-09-19T07:47:01;5.43;;;1.83;;
13975;SDS011;7062;49.792;9.946;2023-09-19T07:49:28;11.90;;;2.37;;
13975;SDS011;7062;49.792;9.946;2023-09-19T07:51:54;3.63;;;2.20;;
13975;SDS011;7062;49.792;9.946;2023-09-19T07:54:20;1.93;;;1.53;;
13975;SDS011;7062;49.792;9.946;2023-09-19T07:56:46;3.73;;;1.60;;
13975;SDS011;7062;49.792;9.946;2023-09-19T07:59:12;3.00;;;1.40;;
13975;SDS011;7062;49.792;9.946;2023-09-19T08:01:38;7.27;;;1.90;;
13975;SDS011;7062;49.792;9.946;2023-09-19T08:04:06;3.77;;;2.07;;
13975;SDS011;7062;49.792;9.946;2023-09-19T08:06:32;4.57;;;1.70;;
13975;SDS011;7062;49.792;9.946;2023-09-19T08:08:58;10.03;;;2.13;;
13975;SDS011;7062;49.792;9.946;2023-09-19T08:11:25;5.03;;;1.90;;
13975;SDS011;7062;49.792;9.946;2023-09-19T08:13:51;4.97;;;1.70;;
13975;SDS011;7062;49.792;9.946;2023-09-19T08:16:17;5.20;;;1.60;;
13975;SDS011;7062;49.792;9.946;2023-09-19T08:18:48;5.83;;;1.67;;
13975;SDS011;7062;49.792;9.946;2023-09-19T08:21:18;3.93;;;1.93;;
13975;SDS011;7062;49.792;9.946;2023-09-19T08:23:44;3.40;;;1.60;;
13975;SDS011;7062;49.792;9.946;2023-09-19T08:26:10;5.87;;;1.70;;
13975;SDS011;7062;49.792;9.946;2023-09-19T08:28:36;2.80;;;1.30;;
13975;SDS011;7062;49.792;9.946;2023-09-19T08:31:05;2.17;;;1.20;;
13975;SDS011;7062;49.792;9.946;2023-09-19T08:33:33;3.17;;;1.23;;
13975;SDS011;7062;49.792;9.946;2023-09-19T08:36:00;5.63;;;1.83;;
13975;SDS011;7062;49.792;9.946;2023-09-19T08:38:29;3.67;;;1.63;;
13975;SDS011;7062;49.792;9.946;2023-09-19T08:40:59;1.57;;;1.20;;
13975;SDS011;7062;49.792;9.946;2023-09-19T08:43:26;4.83;;;1.83;;
13975;SDS011;7062;49.792;9.946;2023-09-19T08:45:58;2.57;;;1.27;;
13975;SDS011;7062;49.792;9.946;2023-09-19T08:48:36;2.70;;;1.40;;
13975;SDS011;7062;49.792;9.946;2023-09-19T08:51:24;3.97;;;1.27;;
13975;SDS011;7062;49.792;9.946;2023-09-19T08:54:08;1.93;;;0.83;;
13975;SDS011;7062;49.792;9.946;2023-09-19T08:56:38;1.53;;;0.93;;
13975;SDS011;7062;49.792;9.946;2023-09-19T08:59:05;6.60;;;1.50;;
13975;SDS011;7062;49.792;9.946;2023-09-19T09:01:36;5.43;;;1.17;;
13975;SDS011;7062;49.792;9.946;2023-09-19T09:04:04;3.83;;;0.97;;
13975;SDS011;7062;49.792;9.946;2023-09-19T09:06:38;3.70;;;0.90;;
13975;SDS011;7062;49.792;9.946;2023-09-19T09:09:08;5.07;;;1.10;;
13975;SDS011;7062;49.792;9.946;2023-09-19T09:11:34;3.43;;;1.37;;
13975;SDS011;7062;49.792;9.946;2023-09-19T09:14:02;5.37;;;1.10;;
13975;SDS011;7062;49.792;9.946;2023-09-19T09:16:27;3.93;;;1.30;;
13975;SDS011;7062;49.792;9.946;2023-09-19T09:18:55;3.80;;;1.20;;
13975;SDS011;7062;49.792;9.946;2023-09-19T09:21:21;3.00;;;0.80;;
13975;SDS011;7062;49.792;9.946;2023-09-19T09:23:49;3.60;;;1.00;;
13975;SDS011;7062;49.792;9.946;2023-09-19T09:26:16;3.20;;;1.03;;
13975;SDS011;7062;49.792;9.946;2023-09-19T09:28:45;3.97;;;0.90;;
13975;SDS011;7062;49.792;9.946;2023-09-19T09:31:22;1.90;;;1.03;;
13975;SDS011;7062;49.792;9.946;2023-09-19T09:33:55;1.60;;;0.90;;
13975;SDS011;7062;49.792;9.946;2023-09-19T09:39:29;4.00;;;0.90;;
13975;SDS011;7062;49.792;9.946;2023-09-19T09:41:56;2.93;;;1.20;;
13975;SDS011;7062;49.792;9.946;2023-09-19T09:44:24;7.73;;;1.33;;
13975;SDS011;7062;49.792;9.946;2023-09-19T09:46:50;4.13;;;0.90;;
13975;SDS011;7062;49.792;9.946;2023-09-19T09:49:24;2.00;;;0.90;;
13975;SDS011;7062;49.792;9.946;2023-09-19T09:54:32;1.97;;;1.30;;
13975;SDS011;7062;49.792;9.946;2023-09-19T09:57:03;3.07;;;1.27;;
13975;SDS011;7062;49.792;9.946;2023-09-19T10:02:35;1.83;;;1.00;;
13975;SDS011;7062;49.792;9.946;2023-09-19T10:05:17;2.80;;;1.17;;
13975;SDS011;7062;49.792;9.946;2023-09-19T10:07:45;2.10;;;0.87;;
13975;SDS011;7062;49.792;9.946;2023-09-19T10:10:38;2.63;;;1.30;;
13975;SDS011;7062;49.792;9.946;2023-09-19T10:13:08;2.40;;;1.30;;
13975;SDS011;7062;49.792;9.946;2023-09-19T10:15:38;2.40;;;1.00;;
13975;SDS011;7062;49.792;9.946;2023-09-19T10:18:11;4.30;;;1.67;;
13975;SDS011;7062;49.792;9.946;2023-09-19T10:20:43;2.07;;;1.10;;
13975;SDS011;7062;49.792;9.946;2023-09-19T10:23:11;3.83;;;1.03;;
13975;SDS011;7062;49.792;9.946;2023-09-19T10:25:41;4.13;;;1.20;;
13975;SDS011;7062;49.792;9.946;2023-09-19T10:28:11;1.97;;;0.93;;
13975;SDS011;7062;49.792;9.946;2023-09-19T10:30:40;2.70;;;1.07;;
13975;SDS011;7062;49.792;9.946;2023-09-19T10:33:13;4.10;;;1.23;;
13975;SDS011;7062;49.792;9.946;2023-09-19T10:35:41;2.33;;;1.00;;
13975;SDS011;7062;49.792;9.946;2023-09-19T10:38:12;1.93;;;0.90;;
13975;SDS011;7062;49.792;9.946;2023-09-19T10:40:39;2.33;;;1.63;;
13975;SDS011;7062;49.792;9.946;2023-09-19T10:43:13;1.83;;;1.07;;
13975;SDS011;7062;49.792;9.946;2023-09-19T10:45:44;4.83;;;1.00;;
13975;SDS011;7062;49.792;9.946;2023-09-19T10:48:15;3.70;;;1.30;;
13975;SDS011;7062;49.792;9.946;2023-09-19T10:50:55;1.77;;;1.00;;
13975;SDS011;7062;49.792;9.946;2023-09-19T10:53:25;2.97;;;1.10;;
13975;SDS011;7062;49.792;9.946;2023-09-19T10:55:55;2.57;;;0.97;;
13975;SDS011;7062;49.792;9.946;2023-09-19T10:58:28;2.73;;;1.20;;
13975;SDS011;7062;49.792;9.946;2023-09-19T11:01:04;1.30;;;1.00;;
13975;SDS011;7062;49.792;9.946;2023-09-19T11:03:37;2.10;;;1.23;;
13975;SDS011;7062;49.792;9.946;2023-09-19T11:08:59;2.97;;;0.93;;
13975;SDS011;7062;49.792;9.946;2023-09-19T11:14:13;2.67;;;0.90;;
13975;SDS011;7062;49.792;9.946;2023-09-19T11:16:39;2.97;;;0.90;;
13975;SDS011;7062;49.792;9.946;2023-09-19T11:19:05;3.10;;;1.03;;
13975;SDS011;7062;49.792;9.946;2023-09-19T11:26:42;2.47;;;1.20;;
13975;SDS011;7062;49.792;9.946;2023-09-19T11:29:25;3.10;;;1.10;;
13975;SDS011;7062;49.792;9.946;2023-09-19T11:31:55;1.97;;;1.00;;
13975;SDS011;7062;49.792;9.946;2023-09-19T11:34:37;2.37;;;1.10;;
13975;SDS011;7062;49.792;9.946;2023-09-19T11:39:37;2.77;;;1.43;;
13975;SDS011;7062;49.792;9.946;2023-09-19T11:45:07;3.07;;;1.30;;
13975;SDS011;7062;49.792;9.946;2023-09-19T11:47:32;1.90;;;0.87;;
13975;SDS011;7062;49.792;9.946;2023-09-19T11:50:00;2.27;;;1.10;;
13975;SDS011;7062;49.792;9.946;2023-09-19T11:52:27;2.50;;;1.20;;
13975;SDS011;7062;49.792;9.946;2023-09-19T11:55:00;4.03;;;1.07;;
13975;SDS011;7062;49.792;9.946;2023-09-19T11:57:26;5.43;;;1.00;;
13975;SDS011;7062;49.792;9.946;2023-09-19T11:59:55;2.60;;;0.93;;
13975;SDS011;7062;49.792;9.946;2023-09-19T12:02:42;2.30;;;0.90;;
13975;SDS011;7062;49.792;9.946;2023-09-19T12:05:11;2.60;;;0.90;;
13975;SDS011;7062;49.792;9.946;2023-09-19T12:07:43;4.03;;;1.03;;
13975;SDS011;7062;49.792;9.946;2023-09-19T12:10:13;2.13;;;1.00;;
13975;SDS011;7062;49.792;9.946;2023-09-19T12:12:40;1.60;;;0.77;;
13975;SDS011;7062;49.792;9.946;2023-09-19T12:15:13;2.53;;;1.00;;
13975;SDS011;7062;49.792;9.946;2023-09-19T12:17:39;2.50;;;1.00;;
13975;SDS011;7062;49.792;9.946;2023-09-19T12:20:08;2.97;;;1.07;;
13975;SDS011;7062;49.792;9.946;2023-09-19T12:22:43;2.50;;;1.00;;
13975;SDS011;7062;49.792;9.946;2023-09-19T12:25:11;2.13;;;0.90;;
13975;SDS011;7062;49.792;9.946;2023-09-19T12:27:44;3.07;;;1.10;;
13975;SDS011;7062;49.792;9.946;2023-09-19T12:30:12;2.93;;;0.83;;
13975;SDS011;7062;49.792;9.946;2023-09-19T12:32:43;3.63;;;1.17;;
13975;SDS011;7062;49.792;9.946;2023-09-19T12:35:09;4.03;;;0.90;;
13975;SDS011;7062;49.792;9.946;2023-09-19T12:37:42;2.53;;;0.87;;
13975;SDS011;7062;49.792;9.946;2023-09-19T12:40:18;1.23;;;0.80;;
13975;SDS011;7062;49.792;9.946;2023-09-19T12:42:52;3.00;;;1.03;;
13975;SDS011;7062;49.792;9.946;2023-09-19T12:45:23;4.03;;;0.90;;
13975;SDS011;7062;49.792;9.946;2023-09-19T12:51:09;2.00;;;1.13;;
13975;SDS011;7062;49.792;9.946;2023-09-19T12:53:44;1.60;;;0.87;;
13975;SDS011;7062;49.792;9.946;2023-09-19T12:56:14;4.97;;;1.23;;
13975;SDS011;7062;49.792;9.946;2023-09-19T12:58:56;1.43;;;0.70;;
13975;SDS011;7062;49.792;9.946;2023-09-19T13:01:23;2.03;;;0.93;;
13975;SDS011;7062;49.792;9.946;2023-09-19T13:06:43;1.63;;;0.90;;
13975;SDS011;7062;49.792;9.946;2023-09-19T13:09:09;1.67;;;0.83;;
13975;SDS011;7062;49.792;9.946;2023-09-19T13:11:37;5.00;;;1.40;;
13975;SDS011;7062;49.792;9.946;2023-09-19T13:14:18;2.93;;;0.87;;
13975;SDS011;7062;49.792;9.946;2023-09-19T13:17:17;2.57;;;1.20;;
13975;SDS011;7062;49.792;9.946;2023-09-19T13:19:45;1.83;;;1.10;;
13975;SDS011;7062;49.792;9.946;2023-09-19T13:25:15;4.77;;;1.20;;
13975;SDS011;7062;49.792;9.946;2023-09-19T13:27:45;2.40;;;0.90;;
13975;SDS011;7062;49.792;9.946;2023-09-19T13:30:13;4.57;;;0.87;;
13975;SDS011;7062;49.792;9.946;2023-09-19T13:32:39;1.23;;;0.80;;
13975;SDS011;7062;49.792;9.946;2023-09-19T13:35:06;1.37;;;0.70;;
13975;SDS011;7062;49.792;9.946;2023-09-19T13:37:35;1.67;;;1.10;;
13975;SDS011;7062;49.792;9.946;2023-09-19T13:40:06;1.30;;;0.60;;
13975;SDS011;7062;49.792;9.946;2023-09-19T13:42:33;1.67;;;0.80;;
13975;SDS011;7062;49.792;9.946;2023-09-19T13:44:59;4.03;;;0.80;;
13975;SDS011;7062;49.792;9.946;2023-09-19T13:47:25;3.07;;;1.33;;
13975;SDS011;7062;49.792;9.946;2023-09-19T13:49:52;4.43;;;1.00;;
13975;SDS011;7062;49.792;9.946;2023-09-19T13:52:18;5.23;;;1.00;;
13975;SDS011;7062;49.792;9.946;2023-09-19T13:54:44;4.40;;;1.00;;
13975;SDS011;7062;49.792;9.946;2023-09-19T13:57:10;5.87;;;1.20;;
13975;SDS011;7062;49.792;9.946;2023-09-19T13:59:35;3.57;;;1.10;;
13975;SDS011;7062;49.792;9.946;2023-09-19T14:02:01;1.93;;;0.90;;
13975;SDS011;7062;49.792;9.946;2023-09-19T14:04:30;2.27;;;0.90;;
13975;SDS011;7062;49.792;9.946;2023-09-19T14:06:56;2.53;;;1.00;;
13975;SDS011;7062;49.792;9.946;2023-09-19T14:09:23;0.97;;;0.70;;
13975;SDS011;7062;49.792;9.946;2023-09-19T14:11:49;2.40;;;0.90;;
13975;SDS011;7062;49.792;9.946;2023-09-19T14:14:17;2.53;;;1.00;;
13975;SDS011;7062;49.792;9.946;2023-09-19T14:16:43;1.93;;;0.83;;
13975;SDS011;7062;49.792;9.946;2023-09-19T14:19:09;3.80;;;1.00;;
13975;SDS011;7062;49.792;9.946;2023-09-19T14:21:35;4.23;;;0.80;;
13975;SDS011;7062;49.792;9.946;2023-09-19T14:24:01;2.10;;;1.00;;
13975;SDS011;7062;49.792;9.946;2023-09-19T14:26:27;1.57;;;0.80;;
13975;SDS011;7062;49.792;9.946;2023-09-19T14:28:54;3.00;;;0.90;;
13975;SDS011;7062;49.792;9.946;2023-09-19T14:31:20;1.07;;;0.80;;
13975;SDS011;7062;49.792;9.946;2023-09-19T14:33:45;2.13;;;0.90;;
13975;SDS011;7062;49.792;9.946;2023-09-19T14:36:22;2.07;;;1.10;;
13975;SDS011;7062;49.792;9.946;2023-09-19T14:38:47;2.13;;;1.07;;
13975;SDS011;7062;49.792;9.946;2023-09-19T14:41:18;3.70;;;1.00;;
13975;SDS011;7062;49.792;9.946;2023-09-19T14:43:44;2.57;;;0.80;;
13975;SDS011;7062;49.792;9.946;2023-09-19T14:46:10;2.43;;;0.83;;
13975;SDS011;7062;49.792;9.946;2023-09-19T14:48:36;2.27;;;0.90;;
13975;SDS011;7062;49.792;9.946;2023-09-19T14:51:02;2.43;;;1.10;;
13975;SDS011;7062;49.792;9.946;2023-09-19T14:53:29;2.53;;;0.93;;
13975;SDS011;7062;49.792;9.946;2023-09-19T14:55:55;2.03;;;1.00;;
13975;SDS011;7062;49.792;9.946;2023-09-19T14:58:21;1.70;;;0.83;;
13975;SDS011;7062;49.792;9.946;2023-09-19T15:00:46;1.77;;;0.90;;
13975;SDS011;7062;49.792;9.946;2023-09-19T15:03:12;2.10;;;0.90;;
13975;SDS011;7062;49.792;9.946;2023-09-19T15:05:38;1.13;;;0.70;;
13975;SDS011;7062;49.792;9.946;2023-09-19T15:08:04;3.43;;;0.90;;
13975;SDS011;7062;49.792;9.946;2023-09-19T15:10:30;3.17;;;0.97;;
13975;SDS011;7062;49.792;9.946;2023-09-19T15:12:56;3.63;;;1.00;;
13975;SDS011;7062;49.792;9.946;2023-09-19T15:15:22;1.37;;;0.63;;
13975;SDS011;7062;49.792;9.946;2023-09-19T15:17:48;1.63;;;0.70;;
13975;SDS011;7062;49.792;9.946;2023-09-19T15:20:13;2.50;;;1.00;;
13975;SDS011;7062;49.792;9.946;2023-09-19T15:22:39;1.90;;;0.90;;
13975;SDS011;7062;49.792;9.946;2023-09-19T15:25:05;1.83;;;1.27;;
13975;SDS011;7062;49.792;9.946;2023-09-19T15:27:31;4.87;;;0.90;;
13975;SDS011;7062;49.792;9.946;2023-09-19T15:29:59;2.20;;;0.90;;
13975;SDS011;7062;49.792;9.946;2023-09-19T15:32:25;1.50;;;1.00;;
13975;SDS011;7062;49.792;9.946;2023-09-19T15:34:51;1.73;;;0.90;;
13975;SDS011;7062;49.792;9.946;2023-09-19T15:37:17;3.47;;;0.90;;
13975;SDS011;7062;49.792;9.946;2023-09-19T15:39:44;3.90;;;0.70;;
13975;SDS011;7062;49.792;9.946;2023-09-19T15:42:11;4.03;;;1.13;;
13975;SDS011;7062;49.792;9.946;2023-09-19T15:44:36;2.00;;;0.83;;
13975;SDS011;7062;49.792;9.946;2023-09-19T15:47:05;1.33;;;0.70;;
13975;SDS011;7062;49.792;9.946;2023-09-19T15:49:31;1.17;;;0.70;;
13975;SDS011;7062;49.792;9.946;2023-09-19T15:51:57;1.13;;;0.93;;
13975;SDS011;7062;49.792;9.946;2023-09-19T15:54:22;1.10;;;0.50;;
13975;SDS011;7062;49.792;9.946;2023-09-19T15:56:51;4.37;;;0.80;;
13975;SDS011;7062;49.792;9.946;2023-09-19T15:59:16;2.63;;;0.77;;
13975;SDS011;7062;49.792;9.946;2023-09-19T16:01:42;1.07;;;0.93;;
13975;SDS011;7062;49.792;9.946;2023-09-19T16:04:09;2.13;;;0.67;;